Pagrindinis puslapis
METAR-TAF:

METAR-TAF

Oro uostai :

Oslas, Norvegija

platuma: 60-12N, ilguma: 011-05E, Aukštis: 208 m

Dabartinis oras

Ataskaita buvo paskelbta 20 minutes, ne 22:20 UTC
Ramus vėjas
Temperatūra 16°C
Drėgmė 48%
Slėgis 1032 hPa
Matomumas 10 km arba daugiau
nėra debesų žemiau 1500 m ir nėra kamuolinių lietaus debesų

METAR: ENGM 302220Z 00000KT CAVOK 16/05 Q1032

Laikas: 00:40 (22:40 UTC)

Prognozė

Prognozė galioja nuo 30 metu 18 UTC su 31 metu 18 UTC
Vėjas 7 kt iš Šiaurės/Šiaurės Rytų
Matomumas 10 km arba daugiau
nėra debesų žemiau 1500 m ir nėra kamuolinių lietaus debesų

TAF: ENGM 3018/3118 03007KT CAVOK

Orai ataskaitas ir orų prognozės (METAR, TAF).

turimą stotys yra geltonos ir raudonos taškus žemėlapyje.

Perkelti pele per norėdami pamatyti stoties vardą.

Tada spustelėkite, norėdami matyti oro stebėjimo ir prognozės.

Norėdami pakeisti žemėlapį: spustelėkite ant žalios mygtukų su juodo kryžiaus žemyn,; žalią mygtuką su brūkšneliu, jei norite nutolinti; arba žalių rodyklių gretimoms žemėlapius.


METAR-TAF: